createdAt,value
2023-03-18T00:02:15.982Z,9.98
2023-03-18T00:04:48.983Z,8.13
2023-03-18T00:07:23.019Z,11.95
2023-03-18T00:09:50.661Z,10.07
2023-03-18T00:12:24.131Z,9.73
2023-03-18T00:14:51.562Z,9.05
2023-03-18T00:17:18.849Z,8.45
2023-03-18T00:19:52.014Z,9.13
2023-03-18T00:22:26.133Z,8.98
2023-03-18T00:24:53.328Z,9.50
2023-03-18T00:27:27.001Z,8.95
2023-03-18T00:29:53.743Z,8.23
2023-03-18T00:32:28.071Z,9.68
2023-03-18T00:34:56.980Z,10.70
2023-03-18T00:37:38.030Z,9.32
2023-03-18T00:40:15.042Z,7.50
2023-03-18T00:42:47.491Z,12.80
2023-03-18T00:45:24.109Z,8.57
2023-03-18T00:48:00.074Z,10.55
2023-03-18T00:50:27.483Z,9.88
2023-03-18T00:52:57.699Z,7.70
2023-03-18T00:55:31.099Z,8.98
2023-03-18T00:58:05.062Z,9.63
2023-03-18T01:00:38.083Z,9.60
2023-03-18T01:03:17.115Z,10.02
2023-03-18T01:05:45.696Z,7.88
2023-03-18T01:08:24.049Z,9.30
2023-03-18T01:10:51.419Z,6.63
2023-03-18T01:13:25.081Z,10.27
2023-03-18T01:15:52.912Z,8.75
2023-03-18T01:18:31.213Z,9.68
2023-03-18T01:21:05.077Z,9.52
2023-03-18T01:23:38.163Z,9.50
2023-03-18T01:26:12.099Z,7.30
2023-03-18T01:28:43.387Z,9.75
2023-03-18T01:31:10.506Z,8.57
2023-03-18T01:33:44.152Z,8.45
2023-03-18T01:36:11.618Z,9.43
2023-03-18T01:38:45.191Z,8.55
2023-03-18T01:41:19.109Z,11.77
2023-03-18T01:43:45.881Z,13.82
2023-03-18T01:46:41.203Z,8.82
2023-03-18T01:49:23.164Z,9.85
2023-03-18T01:52:05.173Z,9.07
2023-03-18T01:54:43.175Z,11.43
2023-03-18T01:57:17.316Z,9.95
2023-03-18T01:59:54.186Z,8.98
2023-03-18T02:02:28.169Z,10.50
2023-03-18T02:05:02.491Z,9.88
2023-03-18T02:07:39.338Z,9.00
2023-03-18T02:10:11.104Z,11.38
2023-03-18T02:12:47.197Z,13.05
2023-03-18T02:15:18.252Z,12.85
2023-03-18T02:18:30.217Z,13.13
2023-03-18T02:21:21.900Z,9.55
2023-03-18T02:24:29.217Z,11.63
2023-03-18T02:27:17.120Z,11.75
2023-03-18T02:29:52.198Z,11.55
2023-03-18T02:32:20.754Z,11.57
2023-03-18T02:34:55.187Z,12.43
2023-03-18T02:37:22.075Z,11.70
2023-03-18T02:39:49.240Z,12.07
2023-03-18T02:42:23.286Z,12.00
2023-03-18T02:44:50.286Z,11.98
2023-03-18T02:47:29.287Z,10.98
2023-03-18T02:50:25.240Z,14.32
2023-03-18T02:52:59.229Z,12.68
2023-03-18T02:55:26.273Z,11.85
2023-03-18T02:57:59.257Z,14.05
2023-03-18T03:00:26.103Z,15.25
2023-03-18T03:03:08.414Z,13.57
2023-03-18T03:05:38.254Z,15.23
2023-03-18T03:08:15.307Z,14.20
2023-03-18T03:10:42.482Z,14.13
2023-03-18T03:13:16.372Z,16.15
2023-03-18T03:15:43.522Z,16.23
2023-03-18T03:18:18.277Z,20.50
2023-03-18T03:20:45.676Z,15.82
2023-03-18T03:23:22.326Z,14.02
2023-03-18T03:25:49.457Z,13.85
2023-03-18T03:28:23.327Z,14.75
2023-03-18T03:30:50.183Z,14.70
2023-03-18T03:33:17.035Z,20.60
2023-03-18T03:35:50.424Z,22.23
2023-03-18T03:38:18.351Z,18.05
2023-03-18T03:40:53.363Z,13.82
2023-03-18T03:43:26.344Z,19.15
2023-03-18T03:45:53.202Z,16.65
2023-03-18T03:48:26.361Z,14.93
2023-03-18T03:51:00.366Z,13.77
2023-03-18T03:53:33.359Z,13.40
2023-03-18T03:56:00.266Z,15.27
2023-03-18T03:58:27.967Z,15.80
2023-03-18T04:01:01.384Z,14.70
2023-03-18T04:03:28.463Z,14.93
2023-03-18T04:06:03.632Z,13.65
2023-03-18T04:08:30.431Z,15.02
2023-03-18T04:10:57.835Z,14.68
2023-03-18T04:13:37.512Z,17.50
2023-03-18T04:16:04.502Z,14.18
2023-03-18T04:18:31.822Z,16.38
2023-03-18T04:21:05.405Z,14.27
2023-03-18T04:23:33.521Z,14.02
2023-03-18T04:26:00.664Z,11.93
2023-03-18T04:28:34.429Z,10.48
2023-03-18T04:31:01.425Z,11.98
2023-03-18T04:33:35.565Z,13.00
2023-03-18T04:36:02.418Z,14.23
2023-03-18T04:38:29.548Z,17.00
2023-03-18T04:41:03.392Z,15.43
2023-03-18T04:43:30.192Z,16.88
2023-03-18T04:45:56.954Z,18.05
2023-03-18T04:48:30.435Z,18.85
2023-03-18T04:50:57.279Z,17.60
2023-03-18T04:53:24.295Z,19.90
2023-03-18T04:55:58.437Z,17.65
2023-03-18T04:58:31.451Z,14.10
2023-03-18T05:00:58.303Z,16.90
2023-03-18T05:03:31.463Z,16.15
2023-03-18T05:05:58.258Z,17.38
2023-03-18T05:08:25.269Z,18.30
2023-03-18T05:10:58.474Z,19.05
2023-03-18T05:13:31.413Z,17.65
2023-03-18T05:16:05.566Z,23.52
2023-03-18T05:18:33.667Z,20.58
2023-03-18T05:21:00.692Z,18.83
2023-03-18T05:23:35.829Z,18.55
2023-03-18T05:26:03.387Z,14.48
2023-03-18T05:28:30.208Z,15.63
2023-03-18T05:31:03.497Z,14.18
2023-03-18T05:33:30.308Z,13.70
2023-03-18T05:35:57.281Z,14.13
2023-03-18T05:38:30.549Z,15.18
2023-03-18T05:40:57.505Z,12.35
2023-03-18T05:43:24.752Z,13.75
2023-03-18T05:45:58.570Z,14.65
2023-03-18T05:48:25.723Z,15.27
2023-03-18T05:50:52.907Z,16.33
2023-03-18T05:53:26.548Z,16.25
2023-03-18T05:55:53.396Z,21.90
2023-03-18T05:58:21.045Z,21.20
2023-03-18T06:00:55.536Z,17.52
2023-03-18T06:03:24.742Z,16.85
2023-03-18T06:05:58.593Z,15.90
2023-03-18T06:08:25.437Z,14.57
2023-03-18T06:10:59.566Z,20.55
2023-03-18T06:13:32.550Z,16.95
2023-03-18T06:16:00.583Z,26.70
2023-03-18T06:18:27.898Z,27.65
2023-03-18T06:21:01.568Z,22.25
2023-03-18T06:23:29.760Z,20.30
2023-03-18T06:26:03.717Z,18.27
2023-03-18T06:28:31.171Z,16.33
2023-03-18T06:30:58.333Z,16.80
2023-03-18T06:33:32.726Z,14.45
2023-03-18T06:36:00.583Z,12.77
2023-03-18T06:38:28.839Z,12.02
2023-03-18T06:41:03.648Z,10.82
2023-03-18T06:43:37.644Z,11.25
2023-03-18T06:46:05.279Z,11.40
2023-03-18T06:48:34.086Z,9.85
2023-03-18T06:51:07.667Z,11.15
2023-03-18T06:53:36.565Z,9.85
2023-03-18T06:56:06.043Z,11.50
2023-03-18T06:58:39.647Z,11.80
2023-03-18T07:01:12.494Z,9.90
2023-03-18T07:03:45.758Z,10.40
2023-03-18T07:06:12.619Z,11.32
2023-03-18T07:08:39.700Z,12.60
2023-03-18T07:11:13.669Z,13.50
2023-03-18T07:13:40.455Z,12.10
2023-03-18T07:16:07.390Z,16.75
2023-03-18T07:18:40.662Z,12.25
2023-03-18T07:21:07.566Z,13.20
2023-03-18T07:23:34.422Z,11.55
2023-03-18T07:26:07.971Z,10.68
2023-03-18T07:28:34.832Z,11.43
2023-03-18T07:31:01.720Z,13.38
2023-03-18T07:33:35.835Z,12.52
2023-03-18T07:36:02.637Z,10.93
2023-03-18T07:38:29.812Z,16.80
2023-03-18T07:41:03.707Z,13.93
2023-03-18T07:43:36.751Z,14.50
2023-03-18T07:46:04.621Z,24.95
2023-03-18T07:48:31.654Z,25.77
2023-03-18T07:51:05.844Z,24.77
2023-03-18T07:53:33.766Z,22.65
2023-03-18T07:56:00.809Z,21.05
2023-03-18T07:58:43.814Z,22.40
2023-03-18T08:01:12.141Z,24.85
2023-03-18T08:03:38.961Z,22.25
2023-03-18T08:06:12.748Z,21.92
2023-03-18T08:08:48.031Z,24.10
2023-03-18T08:11:15.309Z,24.35
2023-03-18T08:13:42.140Z,24.65
2023-03-18T08:16:15.824Z,25.95
2023-03-18T08:18:42.678Z,21.20
2023-03-18T08:21:09.607Z,24.00
2023-03-18T08:23:43.822Z,19.42
2023-03-18T08:26:11.029Z,25.00
2023-03-18T08:28:38.522Z,25.40
2023-03-18T08:31:11.833Z,23.58
2023-03-18T08:33:38.793Z,19.73
2023-03-18T08:36:08.691Z,15.10
2023-03-18T08:38:42.849Z,13.45
2023-03-18T08:41:10.161Z,13.65
2023-03-18T08:43:39.044Z,14.77
2023-03-18T08:46:12.949Z,16.98
2023-03-18T08:48:41.749Z,17.08
2023-03-18T08:51:08.543Z,19.98
2023-03-18T08:53:42.920Z,18.30
2023-03-18T08:56:09.798Z,17.92
2023-03-18T08:58:36.555Z,22.10
2023-03-18T09:01:12.152Z,22.58
2023-03-18T09:03:45.858Z,20.77
2023-03-18T09:06:19.591Z,19.27
2023-03-18T09:08:52.856Z,19.92
2023-03-18T09:11:20.664Z,20.70
2023-03-18T09:13:47.828Z,17.15
2023-03-18T09:16:22.041Z,14.23
2023-03-18T09:18:49.048Z,20.85
2023-03-18T09:21:15.929Z,19.95
2023-03-18T09:23:50.883Z,18.17
2023-03-18T09:26:17.673Z,16.80
2023-03-18T09:28:50.866Z,14.52
2023-03-18T09:31:24.723Z,19.10
2023-03-18T09:33:57.972Z,24.73
2023-03-18T09:36:25.010Z,20.85
2023-03-18T09:38:51.831Z,20.05
2023-03-18T09:41:51.882Z,24.50
2023-03-18T09:44:36.105Z,21.65
2023-03-18T09:47:30.932Z,18.65
2023-03-18T09:50:08.323Z,18.95
2023-03-18T09:52:48.935Z,17.77
2023-03-18T09:55:52.928Z,18.20
2023-03-18T09:58:30.079Z,15.60
2023-03-18T10:01:10.948Z,18.70
2023-03-18T10:04:02.967Z,15.43
2023-03-18T10:06:38.024Z,19.13
2023-03-18T10:09:10.653Z,16.65
2023-03-18T10:11:53.972Z,12.25
2023-03-18T10:14:26.649Z,13.13
2023-03-18T10:17:02.906Z,11.82
2023-03-18T10:19:29.962Z,9.70
2023-03-18T10:22:31.061Z,12.07
2023-03-18T10:25:07.291Z,13.25
2023-03-18T10:27:47.056Z,12.98
2023-03-18T10:30:39.741Z,12.57
2023-03-18T10:33:24.070Z,10.38
2023-03-18T10:36:02.918Z,10.68
2023-03-18T10:38:50.999Z,10.10
2023-03-18T10:41:23.749Z,10.75
2023-03-18T10:44:00.993Z,7.95
2023-03-18T10:46:28.346Z,10.50
2023-03-18T10:49:06.979Z,12.88
2023-03-18T10:52:22.056Z,13.68
2023-03-18T10:54:59.019Z,9.57
2023-03-18T10:57:29.772Z,11.38
2023-03-18T11:00:02.977Z,11.75
2023-03-18T11:02:35.513Z,9.48
2023-03-18T11:05:18.065Z,8.38
2023-03-18T11:08:08.004Z,13.27
2023-03-18T11:10:52.027Z,33.90
2023-03-18T11:13:20.692Z,14.35
2023-03-18T11:16:03.074Z,14.77
2023-03-18T11:21:01.505Z,8.93
2023-03-18T11:24:15.047Z,9.68
2023-03-18T11:27:03.093Z,9.68
2023-03-18T11:29:34.902Z,15.93
2023-03-18T11:32:02.742Z,12.38
2023-03-18T11:34:39.102Z,11.18
2023-03-18T11:37:18.083Z,9.55
2023-03-18T11:39:44.927Z,8.52
2023-03-18T11:42:28.049Z,10.98
2023-03-18T11:44:57.019Z,10.85
2023-03-18T11:47:39.093Z,11.75
2023-03-18T11:50:18.065Z,13.35
2023-03-18T11:52:56.192Z,8.75
2023-03-18T11:55:39.115Z,8.43
2023-03-18T11:58:32.959Z,11.98
2023-03-18T12:01:33.181Z,15.15
2023-03-18T12:04:31.151Z,11.40
2023-03-18T12:07:46.108Z,9.93
2023-03-18T12:10:31.234Z,6.80
2023-03-18T12:13:07.877Z,10.13
2023-03-18T12:15:54.106Z,9.35
2023-03-18T12:18:37.305Z,7.60
2023-03-18T12:21:38.176Z,13.35
2023-03-18T12:24:32.955Z,10.27
2023-03-18T12:27:13.162Z,6.57
2023-03-18T12:30:01.183Z,8.07
2023-03-18T12:32:56.142Z,10.75
2023-03-18T12:35:48.230Z,7.43
2023-03-18T12:38:31.180Z,7.68
2023-03-18T12:41:15.604Z,6.63
2023-03-18T12:44:10.210Z,6.40
2023-03-18T12:46:47.643Z,6.68
2023-03-18T12:49:32.178Z,7.45
2023-03-18T12:52:05.374Z,6.70
2023-03-18T12:54:54.209Z,6.90
2023-03-18T12:57:51.179Z,8.50
2023-03-18T13:00:35.491Z,8.27
2023-03-18T13:03:32.953Z,7.13
2023-03-18T13:06:47.202Z,8.18
2023-03-18T13:09:44.612Z,5.82
2023-03-18T13:12:38.209Z,8.15
2023-03-18T13:15:24.234Z,5.32
2023-03-18T13:18:01.243Z,6.95
2023-03-18T13:20:35.107Z,6.40
2023-03-18T13:26:27.302Z,5.35
2023-03-18T13:29:23.432Z,7.20
2023-03-18T13:31:59.340Z,6.05
2023-03-18T13:35:05.258Z,5.35
2023-03-18T13:38:12.504Z,7.53
2023-03-18T13:41:04.282Z,7.75
2023-03-18T13:43:35.549Z,5.18
2023-03-18T13:46:10.331Z,4.78
2023-03-18T13:48:40.338Z,7.80
2023-03-18T13:51:46.297Z,6.82
2023-03-18T13:54:18.585Z,6.68
2023-03-18T13:59:33.403Z,7.63
2023-03-18T14:02:36.273Z,8.70
2023-03-18T14:05:04.158Z,7.55
2023-03-18T14:07:31.192Z,5.35
2023-03-18T14:10:18.430Z,5.97
2023-03-18T14:12:54.318Z,6.25
2023-03-18T14:15:44.455Z,7.90
2023-03-18T14:18:28.043Z,23.77
2023-03-18T14:21:07.330Z,13.38
2023-03-18T14:23:41.840Z,8.93
2023-03-18T14:26:26.358Z,9.15
2023-03-18T14:28:57.740Z,7.38
2023-03-18T14:31:41.381Z,11.73
2023-03-18T14:34:24.373Z,9.23
2023-03-18T14:36:53.957Z,6.78
2023-03-18T14:40:01.421Z,7.20
2023-03-18T14:42:50.372Z,8.18
2023-03-18T14:45:34.374Z,9.20
2023-03-18T14:48:28.350Z,13.90
2023-03-18T14:50:59.913Z,9.98
2023-03-18T14:53:41.340Z,7.53
2023-03-18T14:56:24.792Z,4.80
2023-03-18T14:59:00.414Z,3.63
2023-03-18T15:01:37.899Z,4.03
2023-03-18T15:04:15.429Z,3.92
2023-03-18T15:06:42.491Z,3.33
2023-03-18T15:09:23.384Z,8.00
2023-03-18T15:11:50.284Z,6.35
2023-03-18T15:14:36.692Z,4.35
2023-03-18T15:17:12.448Z,4.80
2023-03-18T15:19:45.426Z,3.75
2023-03-18T15:22:28.314Z,3.97
2023-03-18T15:25:08.559Z,4.25
2023-03-18T15:27:36.951Z,5.30
2023-03-18T15:30:12.455Z,4.70
2023-03-18T15:32:56.553Z,5.40
2023-03-18T15:35:35.669Z,5.13
2023-03-18T15:38:17.274Z,4.28
2023-03-18T15:41:19.450Z,3.10
2023-03-18T15:43:49.040Z,4.20
2023-03-18T15:46:34.472Z,5.32
2023-03-18T15:49:09.479Z,3.72
2023-03-18T15:51:44.114Z,3.63
2023-03-18T15:54:34.478Z,3.45
2023-03-18T15:57:18.503Z,3.03
2023-03-18T15:59:45.434Z,3.72
2023-03-18T16:02:25.570Z,3.72
2023-03-18T16:04:52.436Z,4.03
2023-03-18T16:07:29.532Z,3.25
2023-03-18T16:09:56.439Z,5.25
2023-03-18T16:12:24.945Z,3.70
2023-03-18T16:14:58.534Z,3.45
2023-03-18T16:17:31.523Z,3.42
2023-03-18T16:20:04.553Z,3.08
2023-03-18T16:22:38.597Z,4.05
2023-03-18T16:25:06.057Z,3.83
2023-03-18T16:27:47.553Z,3.97
2023-03-18T16:30:29.102Z,3.58
2023-03-18T16:33:03.568Z,2.70
2023-03-18T16:35:33.896Z,4.32
2023-03-18T16:38:01.094Z,4.93
2023-03-18T16:40:37.711Z,4.75
2023-03-18T16:43:11.720Z,2.78
2023-03-18T16:45:39.383Z,3.45
2023-03-18T16:48:07.477Z,2.50
2023-03-18T16:50:44.716Z,3.25
2023-03-18T16:53:31.855Z,2.75
2023-03-18T16:56:09.635Z,4.15
2023-03-18T16:58:37.500Z,3.55
2023-03-18T17:01:07.258Z,3.33
2023-03-18T17:03:42.706Z,2.83
2023-03-18T17:06:09.869Z,2.90
2023-03-18T17:08:36.818Z,3.55
2023-03-18T17:11:24.592Z,4.57
2023-03-18T17:13:52.130Z,2.85
2023-03-18T17:16:26.676Z,3.65
2023-03-18T17:18:53.646Z,3.58
2023-03-18T17:21:26.642Z,4.13
2023-03-18T17:23:53.494Z,3.55
2023-03-18T17:26:20.964Z,3.97
2023-03-18T17:28:56.605Z,2.30
2023-03-18T17:31:23.480Z,3.35
2023-03-18T17:33:56.684Z,2.47
2023-03-18T17:36:29.633Z,3.40
2023-03-18T17:39:05.737Z,3.00
2023-03-18T17:41:32.543Z,2.38
2023-03-18T17:43:59.359Z,3.10
2023-03-18T17:46:32.698Z,3.40
2023-03-18T17:49:05.701Z,2.80
2023-03-18T17:51:32.820Z,4.55
2023-03-18T17:54:07.977Z,2.95
2023-03-18T17:56:36.636Z,3.67
2023-03-18T17:59:19.642Z,4.50
2023-03-18T18:01:48.617Z,3.08
2023-03-18T18:04:26.682Z,4.07
2023-03-18T18:06:54.360Z,3.15
2023-03-18T18:09:21.707Z,3.45
2023-03-18T18:11:55.820Z,3.72
2023-03-18T18:14:26.778Z,4.45
2023-03-18T18:17:02.660Z,3.40
2023-03-18T18:19:35.670Z,4.55
2023-03-18T18:22:04.482Z,3.83
2023-03-18T18:24:34.432Z,4.55
2023-03-18T18:27:11.724Z,3.05
2023-03-18T18:29:46.104Z,3.42
2023-03-18T18:32:13.292Z,3.50
2023-03-18T18:34:40.217Z,3.92
2023-03-18T18:37:14.996Z,5.25
2023-03-18T18:39:42.567Z,4.38
2023-03-18T18:42:09.988Z,3.40
2023-03-18T18:44:45.698Z,4.00
2023-03-18T18:47:19.921Z,3.28
2023-03-18T18:49:53.740Z,3.83
2023-03-18T18:52:21.249Z,3.67
2023-03-18T18:54:54.752Z,2.97
2023-03-18T18:57:35.746Z,3.60
2023-03-18T19:00:02.846Z,2.92
2023-03-18T19:02:35.180Z,2.85
2023-03-18T19:05:11.031Z,3.65
2023-03-18T19:07:38.719Z,3.38
2023-03-18T19:10:06.548Z,3.40
2023-03-18T19:12:40.275Z,2.80
2023-03-18T19:15:09.408Z,3.78
2023-03-18T19:17:37.053Z,3.60
2023-03-18T19:20:13.783Z,4.80
2023-03-18T19:22:47.074Z,3.17
2023-03-18T19:25:13.938Z,4.45
2023-03-18T19:27:40.870Z,3.60
2023-03-18T19:30:27.925Z,3.35
2023-03-18T19:32:54.929Z,4.72
2023-03-18T19:35:28.896Z,5.32
2023-03-18T19:38:04.923Z,5.60
2023-03-18T19:40:41.082Z,6.30
2023-03-18T19:43:26.107Z,8.20
2023-03-18T19:46:00.008Z,7.22
2023-03-18T19:48:28.913Z,7.25
2023-03-18T19:50:57.882Z,6.50
2023-03-18T19:53:33.870Z,6.35
2023-03-18T19:56:07.846Z,7.95
2023-03-18T19:58:34.890Z,7.13
2023-03-18T20:01:10.963Z,7.35
2023-03-18T20:03:37.981Z,5.45
2023-03-18T20:06:11.897Z,5.13
2023-03-18T20:08:38.979Z,4.43
2023-03-18T20:11:12.919Z,5.10
2023-03-18T20:13:40.326Z,4.45
2023-03-18T20:16:18.137Z,6.55
2023-03-18T20:18:45.750Z,5.78
2023-03-18T20:21:35.936Z,7.30
2023-03-18T20:24:08.033Z,4.50
2023-03-18T20:26:35.132Z,4.53
2023-03-18T20:29:08.912Z,4.50
2023-03-18T20:31:36.518Z,3.60
2023-03-18T20:34:09.913Z,3.75
2023-03-18T20:36:44.921Z,6.68
2023-03-18T20:39:20.204Z,4.43
2023-03-18T20:41:54.913Z,3.72
2023-03-18T20:44:28.282Z,3.92
2023-03-18T20:46:55.238Z,3.55
2023-03-18T20:49:22.202Z,3.90
2023-03-18T20:51:59.982Z,3.70
2023-03-18T20:54:31.361Z,4.22
2023-03-18T20:57:04.957Z,3.70
2023-03-18T20:59:31.796Z,3.00
2023-03-18T21:02:04.989Z,2.90
2023-03-18T21:04:32.026Z,3.70
2023-03-18T21:06:59.000Z,3.67
2023-03-18T21:09:32.022Z,2.47
2023-03-18T21:11:58.912Z,2.97
2023-03-18T21:14:33.961Z,2.58
2023-03-18T21:17:01.517Z,4.22
2023-03-18T21:19:35.100Z,3.38
2023-03-18T21:22:02.065Z,2.70
2023-03-18T21:24:36.107Z,2.20
2023-03-18T21:27:10.315Z,2.75
2023-03-18T21:29:37.581Z,2.63
2023-03-18T21:32:06.411Z,2.10
2023-03-18T21:34:40.178Z,2.42
2023-03-18T21:37:15.866Z,1.55
2023-03-18T21:39:57.229Z,2.13
2023-03-18T21:42:33.393Z,2.17
2023-03-18T21:45:07.043Z,2.33
2023-03-18T21:47:40.313Z,2.30
2023-03-18T21:50:07.869Z,3.55
2023-03-18T21:52:39.500Z,2.42
2023-03-18T21:55:14.078Z,2.83
2023-03-18T21:57:41.449Z,2.40
2023-03-18T22:00:23.027Z,2.22
2023-03-18T22:02:50.651Z,3.38
2023-03-18T22:05:29.088Z,2.70
2023-03-18T22:07:56.056Z,2.33
2023-03-18T22:10:23.707Z,2.33
2023-03-18T22:12:58.083Z,2.70
2023-03-18T22:15:31.713Z,2.97
2023-03-18T22:17:58.640Z,2.70
2023-03-18T22:20:25.521Z,3.30
2023-03-18T22:22:59.107Z,4.28
2023-03-18T22:25:38.016Z,3.03
2023-03-18T22:28:05.316Z,3.75
2023-03-18T22:30:41.062Z,4.15
2023-03-18T22:33:15.739Z,3.58
2023-03-18T22:35:49.400Z,3.50
2023-03-18T22:38:18.754Z,3.58
2023-03-18T22:40:47.435Z,3.20
2023-03-18T22:43:47.104Z,5.75
2023-03-18T22:46:16.329Z,5.05
2023-03-18T22:48:50.121Z,4.03
2023-03-18T22:51:29.339Z,4.43
2023-03-18T22:54:04.133Z,2.40
2023-03-18T22:56:39.114Z,3.92
2023-03-18T22:59:06.149Z,3.45
2023-03-18T23:01:32.979Z,3.65
2023-03-18T23:04:07.414Z,4.32
2023-03-18T23:06:34.464Z,3.35
2023-03-18T23:09:01.482Z,3.72
2023-03-18T23:11:37.131Z,4.32
2023-03-18T23:14:04.104Z,2.88
2023-03-18T23:16:30.946Z,2.97
2023-03-18T23:19:04.162Z,3.10
2023-03-18T23:21:37.164Z,3.10
2023-03-18T23:24:11.184Z,3.35
2023-03-18T23:26:37.979Z,3.63
2023-03-18T23:29:04.846Z,4.13
2023-03-18T23:31:38.188Z,3.38
2023-03-18T23:34:05.002Z,4.10
2023-03-18T23:36:31.750Z,3.63
2023-03-18T23:39:05.183Z,3.10
2023-03-18T23:41:31.951Z,2.80
2023-03-18T23:43:58.744Z,3.58
2023-03-18T23:46:32.377Z,3.97
2023-03-18T23:48:59.483Z,4.35
2023-03-18T23:51:26.343Z,3.38
2023-03-18T23:53:59.206Z,5.43
2023-03-18T23:56:32.464Z,4.05
2023-03-18T23:58:59.405Z,3.60
